createdAt,value
2019-05-20T00:01:23.720Z,94096.72
2019-05-20T00:03:53.369Z,94101.84
2019-05-20T00:06:23.071Z,94099.58
2019-05-20T00:08:52.723Z,94097.80
2019-05-20T00:11:22.412Z,94092.79
2019-05-20T00:13:52.069Z,94105.19
2019-05-20T00:16:21.729Z,94115.13
2019-05-20T00:18:51.536Z,94118.05
2019-05-20T00:21:21.195Z,94112.78
2019-05-20T00:23:50.871Z,94118.16
2019-05-20T00:26:20.528Z,94123.55
2019-05-20T00:28:50.289Z,94128.52
2019-05-20T00:31:25.237Z,94137.85
2019-05-20T00:33:54.882Z,94129.53
2019-05-20T00:36:26.586Z,94129.94
2019-05-20T00:39:13.984Z,94137.59
2019-05-20T00:41:44.192Z,94130.63
2019-05-20T00:44:13.851Z,94130.08
2019-05-20T00:46:43.510Z,94136.97
2019-05-20T00:49:13.224Z,94140.68
2019-05-20T00:51:43.621Z,94144.69
2019-05-20T00:54:13.193Z,94128.04
2019-05-20T00:56:42.833Z,94142.58
2019-05-20T00:59:12.397Z,94141.79
2019-05-20T01:01:41.955Z,94154.16
2019-05-20T01:04:11.458Z,94137.35
2019-05-20T01:06:40.954Z,94154.11
2019-05-20T01:09:10.645Z,94152.63
2019-05-20T01:11:40.488Z,94158.95
2019-05-20T01:14:10.053Z,94159.58
2019-05-20T01:16:39.851Z,94155.46
2019-05-20T01:19:09.413Z,94152.12
2019-05-20T01:21:38.822Z,94157.48
2019-05-20T01:24:08.346Z,94162.94
2019-05-20T01:26:37.762Z,94169.04
2019-05-20T01:29:07.382Z,94166.23
2019-05-20T01:31:38.281Z,94164.36
2019-05-20T01:34:08.049Z,94160.80
2019-05-20T01:36:37.551Z,94166.58
2019-05-20T01:39:07.536Z,94165.78
2019-05-20T01:41:37.159Z,94169.16
2019-05-20T01:44:06.794Z,94160.09
2019-05-20T01:46:36.291Z,94168.55
2019-05-20T01:49:05.877Z,94154.16
2019-05-20T01:51:35.293Z,94170.50
2019-05-20T01:54:04.857Z,94167.78
2019-05-20T01:56:34.467Z,94164.25
2019-05-20T01:59:03.993Z,94154.20
2019-05-20T02:01:33.401Z,94157.58
2019-05-20T02:04:03.957Z,94156.23
2019-05-20T02:06:33.375Z,94154.52
2019-05-20T02:09:03.003Z,94159.02
2019-05-20T02:11:32.786Z,94153.03
2019-05-20T02:14:03.995Z,94134.41
2019-05-20T02:16:33.475Z,94154.30
2019-05-20T02:19:03.053Z,94145.52
2019-05-20T02:21:32.606Z,94149.51
2019-05-20T02:24:02.164Z,94147.18
2019-05-20T02:26:31.656Z,94152.64
2019-05-20T02:29:01.072Z,94143.25
2019-05-20T02:31:30.570Z,94144.66
2019-05-20T02:34:00.172Z,94148.55
2019-05-20T02:36:29.665Z,94152.44
2019-05-20T02:38:59.221Z,94147.98
2019-05-20T02:41:28.710Z,94149.42
2019-05-20T02:43:58.207Z,94154.87
2019-05-20T02:46:27.758Z,94141.88
2019-05-20T02:48:57.314Z,94151.51
2019-05-20T02:51:32.834Z,94154.94
2019-05-20T02:54:03.226Z,94157.86
2019-05-20T02:56:32.804Z,94161.30
2019-05-20T02:59:02.586Z,94163.00
2019-05-20T03:01:32.160Z,94165.36
2019-05-20T03:04:11.568Z,94170.05
2019-05-20T03:06:33.313Z,94170.45
2019-05-20T03:09:03.075Z,94172.92
2019-05-20T03:11:32.632Z,94174.73
2019-05-20T03:14:03.299Z,94182.91
2019-05-20T03:16:32.843Z,94184.02
2019-05-20T03:19:02.582Z,94185.09
2019-05-20T03:21:32.268Z,94180.88
2019-05-20T03:24:01.693Z,94181.02
2019-05-20T03:26:31.187Z,94185.30
2019-05-20T03:29:00.706Z,94174.88
2019-05-20T03:31:30.317Z,94169.10
2019-05-20T03:33:59.899Z,94181.70
2019-05-20T03:36:29.429Z,94188.64
2019-05-20T03:38:58.919Z,94190.70
2019-05-20T03:41:28.333Z,94196.25
2019-05-20T03:43:57.950Z,94193.93
2019-05-20T03:46:27.506Z,94209.53
2019-05-20T03:48:57.057Z,94214.52
2019-05-20T03:51:26.672Z,94219.99
2019-05-20T03:53:56.229Z,94219.85
2019-05-20T03:56:25.712Z,94225.16
2019-05-20T03:58:55.318Z,94227.25
2019-05-20T04:01:24.765Z,94229.18
2019-05-20T04:03:56.040Z,94232.69
2019-05-20T04:06:25.699Z,94230.27
2019-05-20T04:09:07.189Z,94217.05
2019-05-20T04:11:49.865Z,94217.55
2019-05-20T04:14:22.286Z,94222.24
2019-05-20T04:16:56.389Z,94225.90
2019-05-20T04:22:38.243Z,94233.13
2019-05-20T04:25:08.105Z,94220.95
2019-05-20T04:27:37.876Z,94225.19
2019-05-20T04:30:11.525Z,94216.89
2019-05-20T04:32:41.141Z,94212.48
2019-05-20T04:35:22.063Z,94210.23
2019-05-20T04:38:07.372Z,94205.23
2019-05-20T04:40:37.092Z,94204.57
2019-05-20T04:43:06.765Z,94205.87
2019-05-20T04:45:36.463Z,94213.77
2019-05-20T04:48:30.295Z,94214.08
2019-05-20T04:50:58.867Z,94203.55
2019-05-20T04:53:28.482Z,94203.39
2019-05-20T04:55:58.100Z,94200.25
2019-05-20T04:58:36.579Z,94198.98
2019-05-20T05:01:35.523Z,94199.02
2019-05-20T05:03:45.561Z,94195.66
2019-05-20T05:06:16.927Z,94192.54
2019-05-20T05:08:54.182Z,94199.06
2019-05-20T05:11:26.815Z,94206.84
2019-05-20T05:13:57.679Z,94205.81
2019-05-20T05:16:28.227Z,94207.70
2019-05-20T05:18:57.929Z,94202.89
2019-05-20T05:21:27.486Z,94193.04
2019-05-20T05:23:59.540Z,94200.30
2019-05-20T05:26:29.763Z,94199.58
2019-05-20T05:29:19.895Z,94193.34
2019-05-20T05:31:37.096Z,94186.08
2019-05-20T05:34:08.266Z,94185.61
2019-05-20T05:36:38.876Z,94189.29
2019-05-20T05:39:08.576Z,94182.25
2019-05-20T05:41:38.206Z,94183.56
2019-05-20T05:44:08.019Z,94180.94
2019-05-20T05:46:37.639Z,94173.84
2019-05-20T05:49:07.402Z,94170.73
2019-05-20T05:51:36.982Z,94178.30
2019-05-20T05:54:07.607Z,94171.80
2019-05-20T05:56:37.203Z,94171.22
2019-05-20T05:59:11.921Z,94164.84
2019-05-20T06:01:41.525Z,94174.09
2019-05-20T06:04:11.226Z,94173.00
2019-05-20T06:06:40.857Z,94168.73
2019-05-20T06:09:10.641Z,94174.92
2019-05-20T06:11:50.234Z,94163.28
2019-05-20T06:14:19.890Z,94163.88
2019-05-20T06:16:55.191Z,94167.34
2019-05-20T06:19:27.805Z,94168.11
2019-05-20T06:22:10.241Z,94155.68
2019-05-20T06:24:39.783Z,94160.34
2019-05-20T06:27:09.482Z,94157.39
2019-05-20T06:29:39.175Z,94159.17
2019-05-20T06:32:08.800Z,94158.56
2019-05-20T06:34:38.428Z,94161.80
2019-05-20T06:37:12.929Z,94157.08
2019-05-20T06:39:51.332Z,94158.22
2019-05-20T06:42:21.205Z,94165.54
2019-05-20T06:44:55.023Z,94158.27
2019-05-20T06:47:23.460Z,94151.59
2019-05-20T06:49:54.103Z,94151.44
2019-05-20T06:52:35.280Z,94144.09
2019-05-20T06:54:55.147Z,94155.52
2019-05-20T06:57:24.891Z,94152.80
2019-05-20T06:59:54.592Z,94140.58
2019-05-20T07:02:25.562Z,94134.22
2019-05-20T07:04:55.194Z,94157.25
2019-05-20T07:07:24.771Z,94154.67
2019-05-20T07:09:54.396Z,94162.63
2019-05-20T07:12:40.571Z,94123.64
2019-05-20T07:15:01.299Z,94155.55
2019-05-20T07:17:32.459Z,94153.13
2019-05-20T07:20:02.342Z,94150.28
2019-05-20T07:23:09.214Z,94142.88
2019-05-20T07:25:36.838Z,94149.44
2019-05-20T07:28:08.014Z,94143.27
2019-05-20T07:30:39.178Z,94135.70
2019-05-20T07:33:08.831Z,94141.53
2019-05-20T07:35:38.483Z,94151.27
2019-05-20T07:38:08.147Z,94143.99
2019-05-20T07:40:37.728Z,94131.87
2019-05-20T07:43:07.341Z,94146.24
2019-05-20T07:45:39.832Z,94142.66
2019-05-20T07:48:09.474Z,94147.78
2019-05-20T07:50:46.142Z,94133.09
2019-05-20T07:53:13.833Z,94141.16
2019-05-20T07:56:02.985Z,94149.17
2019-05-20T07:58:35.923Z,94130.81
2019-05-20T08:01:05.645Z,94144.10
2019-05-20T08:03:38.612Z,94135.23
2019-05-20T08:06:08.214Z,94141.83
2019-05-20T08:08:39.567Z,94135.19
2019-05-20T08:11:09.303Z,94134.72
2019-05-20T08:13:42.598Z,94136.14
2019-05-20T08:16:11.969Z,94125.63
2019-05-20T08:18:43.040Z,94117.75
2019-05-20T08:21:12.706Z,94114.43
2019-05-20T08:23:44.618Z,94118.30
2019-05-20T08:26:14.391Z,94109.49
2019-05-20T08:28:46.060Z,94119.18
2019-05-20T08:31:15.737Z,94121.56
2019-05-20T08:33:45.408Z,94130.52
2019-05-20T08:36:15.032Z,94135.86
2019-05-20T08:38:44.666Z,94137.34
2019-05-20T08:41:15.686Z,94141.97
2019-05-20T08:43:45.310Z,94139.56
2019-05-20T08:46:14.942Z,94140.88
2019-05-20T08:48:45.857Z,94119.44
2019-05-20T08:51:15.439Z,94110.07
2019-05-20T08:53:45.198Z,94126.99
2019-05-20T08:56:14.903Z,94120.90
2019-05-20T08:58:44.654Z,94113.22
2019-05-20T09:01:14.360Z,94124.08
2019-05-20T09:03:44.056Z,94123.67
2019-05-20T09:06:13.648Z,94124.27
2019-05-20T09:08:43.358Z,94132.18
2019-05-20T09:11:12.982Z,94124.72
2019-05-20T09:13:42.631Z,94126.33
2019-05-20T09:16:13.635Z,94124.80
2019-05-20T09:18:43.261Z,94132.00
2019-05-20T09:21:13.006Z,94129.98
2019-05-20T09:23:42.637Z,94124.82
2019-05-20T09:26:12.267Z,94126.72
2019-05-20T09:28:42.253Z,94123.20
2019-05-20T09:31:11.931Z,94110.48
2019-05-20T09:33:41.563Z,94108.52
2019-05-20T09:36:11.228Z,94098.23
2019-05-20T09:38:41.016Z,94106.00
2019-05-20T09:41:10.700Z,94105.64
2019-05-20T09:43:40.359Z,94098.07
2019-05-20T09:46:10.233Z,94108.53
2019-05-20T09:48:40.102Z,94102.05
2019-05-20T09:51:09.666Z,94098.72
2019-05-20T09:53:39.381Z,94098.86
2019-05-20T09:56:08.854Z,94104.88
2019-05-20T09:58:38.337Z,94106.42
2019-05-20T10:01:08.418Z,94102.08
2019-05-20T10:03:38.135Z,94102.35
2019-05-20T10:06:07.757Z,94104.36
2019-05-20T10:08:43.508Z,94103.91
2019-05-20T10:11:09.070Z,94106.44
2019-05-20T10:13:38.665Z,94113.05
2019-05-20T10:16:08.224Z,94092.79
2019-05-20T10:18:39.322Z,94105.62
2019-05-20T10:21:13.028Z,94105.12
2019-05-20T10:23:42.682Z,94114.30
2019-05-20T10:26:12.254Z,94109.89
2019-05-20T10:28:46.515Z,94134.25
2019-05-20T10:31:13.699Z,94139.06
2019-05-20T10:33:43.374Z,94164.58
2019-05-20T10:36:13.061Z,94164.80
2019-05-20T10:38:57.636Z,94174.42
2019-05-20T10:41:13.975Z,94205.64
2019-05-20T10:43:43.614Z,94222.39
2019-05-20T10:46:13.198Z,94245.49
2019-05-20T10:48:42.954Z,94234.40
2019-05-20T10:51:12.610Z,94237.57
2019-05-20T10:53:42.104Z,94242.73
2019-05-20T10:56:13.548Z,94239.65
2019-05-20T10:58:43.563Z,94230.84
2019-05-20T11:01:13.239Z,94242.05
2019-05-20T11:03:43.005Z,94246.00
2019-05-20T11:06:12.728Z,94245.94
2019-05-20T11:09:25.419Z,94230.91
2019-05-20T11:15:16.822Z,94234.47
2019-05-20T11:17:46.600Z,94238.59
2019-05-20T11:20:16.592Z,94228.97
2019-05-20T11:25:52.838Z,94217.91
2019-05-20T11:28:22.705Z,94209.36
2019-05-20T11:31:01.905Z,94203.63
2019-05-20T11:33:33.304Z,94199.73
2019-05-20T11:36:05.935Z,94203.61
2019-05-20T11:38:57.434Z,94204.41
2019-05-20T11:41:52.260Z,94214.04
2019-05-20T11:44:04.298Z,94202.58
2019-05-20T11:46:42.827Z,94199.17
2019-05-20T11:49:09.014Z,94191.63
2019-05-20T11:51:38.613Z,94186.66
2019-05-20T11:54:23.025Z,94186.43
2019-05-20T11:58:38.683Z,94187.19
2019-05-20T11:59:31.441Z,94175.45
2019-05-20T12:02:04.084Z,94175.20
2019-05-20T12:04:36.887Z,94177.00
2019-05-20T12:07:08.776Z,94177.02
2019-05-20T12:16:15.270Z,94183.81
2019-05-20T12:18:45.312Z,94193.36
2019-05-20T12:21:16.379Z,94201.41
2019-05-20T12:23:46.097Z,94198.77
2019-05-20T12:26:15.734Z,94159.31
2019-05-20T12:28:45.539Z,94232.25
2019-05-20T12:31:15.531Z,94264.89
2019-05-20T12:33:45.435Z,94267.61
2019-05-20T12:36:14.921Z,94285.39
2019-05-20T12:38:44.638Z,94303.65
2019-05-20T12:41:14.130Z,94323.81
2019-05-20T12:43:45.011Z,94348.49
2019-05-20T12:46:14.911Z,94350.91
2019-05-20T12:48:44.694Z,94358.17
2019-05-20T12:51:14.847Z,94375.77
2019-05-20T12:53:44.615Z,94366.80
2019-05-20T12:56:14.191Z,94370.83
2019-05-20T12:58:43.814Z,94361.12
2019-05-20T13:01:13.375Z,94364.10
2019-05-20T13:03:42.945Z,94352.53
2019-05-20T13:06:12.615Z,94355.40
2019-05-20T13:08:47.423Z,94356.70
2019-05-20T13:11:17.697Z,94344.14
2019-05-20T13:13:51.031Z,94319.64
2019-05-20T13:16:25.968Z,94304.27
2019-05-20T13:18:56.679Z,94297.77
2019-05-20T13:21:54.975Z,94313.88
2019-05-20T13:24:47.512Z,94299.87
2019-05-20T13:27:17.911Z,94303.80
2019-05-20T13:29:47.472Z,94304.34
2019-05-20T13:32:18.704Z,94303.94
2019-05-20T13:34:50.039Z,94293.81
2019-05-20T13:37:19.770Z,94304.88
2019-05-20T13:40:02.872Z,94308.91
2019-05-20T13:42:24.117Z,94306.20
2019-05-20T13:44:53.714Z,94304.39
2019-05-20T13:47:23.363Z,94314.34
2019-05-20T13:50:00.419Z,94309.80
2019-05-20T13:52:40.978Z,94305.13
2019-05-20T13:55:11.117Z,94310.88
2019-05-20T13:57:43.756Z,94296.61
2019-05-20T14:00:13.595Z,94298.98
2019-05-20T14:02:43.399Z,94301.87
2019-05-20T14:07:48.113Z,94302.64
2019-05-20T14:10:17.799Z,94287.27
2019-05-20T14:12:47.405Z,94289.89
2019-05-20T14:15:16.964Z,94291.17
2019-05-20T14:17:51.419Z,94284.59
2019-05-20T14:20:21.180Z,94292.95
2019-05-20T14:22:57.787Z,94294.56
2019-05-20T14:25:29.411Z,94310.75
2019-05-20T14:27:59.146Z,94311.53
2019-05-20T14:30:28.871Z,94310.45
2019-05-20T14:33:00.397Z,94316.67
2019-05-20T14:35:31.712Z,94327.05
2019-05-20T14:38:01.253Z,94327.08
2019-05-20T14:40:31.168Z,94337.20
2019-05-20T14:43:00.832Z,94336.39
2019-05-20T14:45:31.965Z,94354.60
2019-05-20T14:48:03.325Z,94355.55
2019-05-20T14:50:32.858Z,94374.69
2019-05-20T14:53:02.479Z,94374.78
2019-05-20T14:55:41.839Z,94364.07
2019-05-20T14:58:03.359Z,94368.58
2019-05-20T15:00:32.864Z,94369.16
2019-05-20T15:03:02.341Z,94371.84
2019-05-20T15:05:31.937Z,94369.80
2019-05-20T15:08:01.558Z,94369.22
2019-05-20T15:10:31.126Z,94350.67
2019-05-20T15:13:00.778Z,94364.87
2019-05-20T15:15:30.375Z,94347.58
2019-05-20T15:18:00.422Z,94342.16
2019-05-20T15:20:30.042Z,94327.33
2019-05-20T15:22:59.916Z,94328.98
2019-05-20T15:25:29.349Z,94324.39
2019-05-20T15:28:00.149Z,94321.91
2019-05-20T15:30:29.702Z,94317.24
2019-05-20T15:32:59.335Z,94315.67
2019-05-20T15:35:28.887Z,94317.59
2019-05-20T15:37:58.686Z,94317.88
2019-05-20T15:40:28.278Z,94320.38
2019-05-20T15:42:58.103Z,94310.83
2019-05-20T15:45:30.591Z,94317.60
2019-05-20T15:48:00.288Z,94317.04
2019-05-20T15:50:29.888Z,94312.45
2019-05-20T15:52:59.326Z,94317.66
2019-05-20T15:55:28.742Z,94319.98
2019-05-20T15:57:58.409Z,94331.74
2019-05-20T16:00:29.066Z,94312.22
2019-05-20T16:02:58.458Z,94317.45
2019-05-20T16:05:28.087Z,94316.71
2019-05-20T16:07:57.583Z,94318.53
2019-05-20T16:10:27.247Z,94317.50
2019-05-20T16:12:56.921Z,94306.78
2019-05-20T16:15:26.581Z,94310.45
2019-05-20T16:17:56.069Z,94304.96
2019-05-20T16:20:25.835Z,94324.69
2019-05-20T16:22:55.343Z,94300.72
2019-05-20T16:25:24.764Z,94318.62
2019-05-20T16:27:54.539Z,94313.42
2019-05-20T16:30:24.192Z,94315.17
2019-05-20T16:32:53.758Z,94317.17
2019-05-20T16:35:23.458Z,94317.17
2019-05-20T16:37:53.009Z,94312.90
2019-05-20T16:40:22.642Z,94309.76
2019-05-20T16:42:55.156Z,94322.84
2019-05-20T16:45:25.184Z,94316.07
2019-05-20T16:47:54.741Z,94315.80
2019-05-20T16:50:24.378Z,94319.04
2019-05-20T16:52:53.956Z,94322.83
2019-05-20T16:55:23.831Z,94334.41
2019-05-20T16:57:54.303Z,94334.11
2019-05-20T17:00:31.961Z,94326.56
2019-05-20T17:02:59.867Z,94326.00
2019-05-20T17:05:29.578Z,94328.19
2019-05-20T17:07:59.159Z,94326.16
2019-05-20T17:10:28.785Z,94322.44
2019-05-20T17:12:58.540Z,94334.86
2019-05-20T17:15:28.087Z,94329.76
2019-05-20T17:17:57.498Z,94345.76
2019-05-20T17:20:27.317Z,94338.02
2019-05-20T17:22:56.976Z,94342.47
2019-05-20T17:25:26.629Z,94355.40
2019-05-20T17:27:56.184Z,94356.83
2019-05-20T17:30:25.673Z,94362.64
2019-05-20T17:32:55.207Z,94349.05
2019-05-20T17:35:24.761Z,94368.56
2019-05-20T17:37:55.426Z,94365.33
2019-05-20T17:40:25.354Z,94351.41
2019-05-20T17:42:54.983Z,94358.41
2019-05-20T17:45:24.674Z,94360.72
2019-05-20T17:47:54.244Z,94367.26
2019-05-20T17:50:23.900Z,94364.61
2019-05-20T17:52:54.393Z,94385.64
2019-05-20T17:55:24.331Z,94389.39
2019-05-20T17:57:55.169Z,94387.52
2019-05-20T18:00:24.862Z,94394.23
2019-05-20T18:02:55.577Z,94395.14
2019-05-20T18:05:25.303Z,94394.64
2019-05-20T18:07:56.280Z,94391.77
2019-05-20T18:10:26.129Z,94402.73
2019-05-20T18:12:55.981Z,94398.67
2019-05-20T18:15:25.708Z,94410.22
2019-05-20T18:17:55.341Z,94390.71
2019-05-20T18:20:25.074Z,94411.27
2019-05-20T18:22:54.751Z,94396.06
2019-05-20T18:25:24.192Z,94410.72
2019-05-20T18:27:54.873Z,94402.64
2019-05-20T18:30:25.017Z,94418.20
2019-05-20T18:32:54.574Z,94423.42
2019-05-20T18:35:24.310Z,94428.22
2019-05-20T18:37:53.920Z,94420.17
2019-05-20T18:40:23.569Z,94428.44
2019-05-20T18:42:53.054Z,94425.42
2019-05-20T18:45:22.486Z,94434.94
2019-05-20T18:47:52.038Z,94439.80
2019-05-20T18:50:21.828Z,94454.61
2019-05-20T18:52:51.412Z,94450.22
2019-05-20T18:55:20.952Z,94452.34
2019-05-20T19:35:56.726Z,94468.81
2019-05-20T19:38:26.469Z,94470.46
2019-05-20T19:40:55.958Z,94463.52
2019-05-20T19:43:25.812Z,94469.27
2019-05-20T19:45:55.239Z,94467.41
2019-05-20T19:48:25.012Z,94474.39
2019-05-20T19:50:54.651Z,94479.53
2019-05-20T19:53:24.510Z,94470.95
2019-05-20T19:55:54.071Z,94457.37
2019-05-20T19:58:23.629Z,94479.27
2019-05-20T20:00:56.553Z,94484.31
2019-05-20T20:03:24.564Z,94487.96
2019-05-20T20:05:53.976Z,94483.91
2019-05-20T20:08:23.533Z,94487.73
2019-05-20T20:10:53.148Z,94486.50
2019-05-20T20:13:22.787Z,94481.33
2019-05-20T20:15:52.426Z,94488.17
2019-05-20T20:18:21.920Z,94499.47
2019-05-20T20:20:53.174Z,94495.75
2019-05-20T20:23:25.075Z,94491.32
2019-05-20T20:25:54.655Z,94506.73
2019-05-20T20:28:24.240Z,94517.20
2019-05-20T20:30:53.814Z,94515.49
2019-05-20T20:33:23.307Z,94523.75
2019-05-20T20:35:52.802Z,94524.45
2019-05-20T20:38:22.375Z,94532.91
2019-05-20T20:40:51.938Z,94536.04
2019-05-20T20:43:21.531Z,94536.45
2019-05-20T20:45:51.084Z,94535.86
2019-05-20T20:48:20.922Z,94533.45
2019-05-20T20:50:50.487Z,94539.00
2019-05-20T20:53:20.058Z,94536.08
2019-05-20T20:55:49.542Z,94551.28
2019-05-20T20:58:19.076Z,94541.23
2019-05-20T21:00:48.498Z,94551.30
2019-05-20T21:03:18.061Z,94549.47
2019-05-20T21:05:47.703Z,94543.79
2019-05-20T21:08:17.192Z,94550.81
2019-05-20T21:10:46.610Z,94564.97
2019-05-20T21:13:16.102Z,94558.66
2019-05-20T21:15:45.857Z,94564.82
2019-05-20T21:18:15.364Z,94569.43
2019-05-20T21:20:44.874Z,94567.27
2019-05-20T21:23:14.361Z,94567.25
2019-05-20T21:25:44.071Z,94560.45
2019-05-20T21:28:13.586Z,94562.52
2019-05-20T21:30:43.081Z,94551.55
2019-05-20T21:33:12.572Z,94557.36
2019-05-20T21:35:45.180Z,94562.05
2019-05-20T21:38:13.175Z,94556.44
2019-05-20T21:40:42.747Z,94575.63
2019-05-20T21:43:12.305Z,94574.72
2019-05-20T21:45:41.731Z,94570.47
2019-05-20T21:48:11.148Z,94571.66
2019-05-20T21:50:40.705Z,94576.97
2019-05-20T21:53:10.200Z,94576.71
2019-05-20T21:55:39.625Z,94581.22
2019-05-20T21:58:09.081Z,94574.19
2019-05-20T22:00:54.946Z,94570.52
2019-05-20T22:03:26.007Z,94576.20
2019-05-20T22:05:56.584Z,94574.37
2019-05-20T22:08:26.150Z,94575.22
2019-05-20T22:10:55.641Z,94582.94
2019-05-20T22:13:25.105Z,94588.66
2019-05-20T22:15:54.494Z,94575.53
2019-05-20T22:18:23.924Z,94587.16
2019-05-20T22:20:53.971Z,94601.52
2019-05-20T22:23:25.251Z,94593.47
2019-05-20T22:25:55.066Z,94593.39
2019-05-20T22:28:24.618Z,94593.97
2019-05-20T22:30:54.192Z,94606.95
2019-05-20T22:33:23.740Z,94596.14
2019-05-20T22:35:53.716Z,94586.67
2019-05-20T22:38:23.286Z,94585.66
2019-05-20T22:40:52.896Z,94591.23
2019-05-20T22:43:22.389Z,94592.39
2019-05-20T22:45:52.125Z,94583.63
2019-05-20T22:48:21.833Z,94591.20
2019-05-20T22:50:51.427Z,94601.95
2019-05-20T22:53:20.995Z,94601.64
2019-05-20T22:55:50.745Z,94601.41
2019-05-20T22:58:20.238Z,94600.91
2019-05-20T23:00:50.937Z,94604.22
2019-05-20T23:03:22.310Z,94614.59
2019-05-20T23:05:51.884Z,94606.33
2019-05-20T23:08:21.563Z,94627.28
2019-05-20T23:10:51.123Z,94611.81
2019-05-20T23:13:20.596Z,94614.06
2019-05-20T23:15:50.309Z,94614.95
2019-05-20T23:18:19.921Z,94619.11
2019-05-20T23:20:49.811Z,94607.73
2019-05-20T23:23:19.350Z,94605.23
2019-05-20T23:25:49.104Z,94614.41
2019-05-20T23:28:20.286Z,94609.97
2019-05-20T23:30:49.727Z,94594.42
2019-05-20T23:33:19.211Z,94606.55
2019-05-20T23:35:48.954Z,94607.73
2019-05-20T23:38:18.383Z,94599.19
2019-05-20T23:40:47.874Z,94603.72
2019-05-20T23:43:17.356Z,94606.20
2019-05-20T23:45:46.897Z,94603.59
2019-05-20T23:48:16.463Z,94614.33
2019-05-20T23:50:45.880Z,94604.44
2019-05-20T23:53:17.237Z,94606.55
2019-05-20T23:55:46.791Z,94606.30
2019-05-20T23:58:16.358Z,94599.02
